createdAt,value
2023-04-08T00:01:57.338Z,101655.22
2023-04-08T00:04:24.942Z,101645.50
2023-04-08T00:06:52.407Z,101650.91
2023-04-08T00:09:21.248Z,101650.22
2023-04-08T00:11:48.670Z,101652.28
2023-04-08T00:14:16.258Z,101663.41
2023-04-08T00:16:43.725Z,101669.94
2023-04-08T00:19:11.549Z,101665.84
2023-04-08T00:21:38.921Z,101665.56
2023-04-08T00:24:06.979Z,101658.84
2023-04-08T00:26:35.866Z,101664.72
2023-04-08T00:29:03.296Z,101658.91
2023-04-08T00:31:30.983Z,101658.59
2023-04-08T00:33:58.828Z,101657.56
2023-04-08T00:36:27.655Z,101656.50
2023-04-08T00:38:55.456Z,101662.47
2023-04-08T00:41:22.850Z,101664.03
2023-04-08T00:43:51.590Z,101665.38
2023-04-08T00:46:19.658Z,101661.81
2023-04-08T00:48:47.138Z,101659.47
2023-04-08T00:51:14.614Z,101655.75
2023-04-08T00:53:42.075Z,101661.28
2023-04-08T00:56:09.498Z,101654.81
2023-04-08T00:58:37.138Z,101654.22
2023-04-08T01:01:11.452Z,101653.66
2023-04-08T01:03:46.196Z,101657.34
2023-04-08T01:06:20.627Z,101655.91
2023-04-08T01:08:49.401Z,101662.44
2023-04-08T01:11:17.602Z,101658.22
2023-04-08T01:13:46.602Z,101660.50
2023-04-08T01:16:17.590Z,101659.22
2023-04-08T01:18:47.463Z,101666.69
2023-04-08T01:21:17.353Z,101664.94
2023-04-08T01:24:00.626Z,101665.38
2023-04-08T01:26:30.235Z,101676.22
2023-04-08T01:29:01.398Z,101672.88
2023-04-08T01:31:30.456Z,101666.88
2023-04-08T01:34:00.654Z,101672.44
2023-04-08T01:36:29.603Z,101677.22
2023-04-08T01:38:57.609Z,101683.88
2023-04-08T01:41:25.467Z,101671.97
2023-04-08T01:43:55.630Z,101673.09
2023-04-08T01:46:23.567Z,101672.06
2023-04-08T01:48:52.378Z,101679.47
2023-04-08T01:51:21.078Z,101677.75
2023-04-08T01:53:48.546Z,101684.69
2023-04-08T01:56:17.325Z,101691.81
2023-04-08T01:58:50.312Z,101698.09
2023-04-08T02:01:21.979Z,101686.81
2023-04-08T02:03:52.144Z,101678.78
2023-04-08T02:06:19.681Z,101679.84
2023-04-08T02:08:47.151Z,101679.72
2023-04-08T02:11:14.715Z,101677.28
2023-04-08T02:13:42.491Z,101680.13
2023-04-08T02:16:16.243Z,101689.66
2023-04-08T02:18:52.947Z,101689.78
2023-04-08T02:21:23.870Z,101688.13
2023-04-08T02:23:52.118Z,101699.75
2023-04-08T02:26:21.904Z,101698.19
2023-04-08T02:28:51.114Z,101704.19
2023-04-08T02:31:20.509Z,101706.44
2023-04-08T02:33:50.793Z,101705.88
2023-04-08T02:36:18.766Z,101703.44
2023-04-08T02:38:49.303Z,101707.13
2023-04-08T02:41:16.973Z,101708.28
2023-04-08T02:43:44.617Z,101712.97
2023-04-08T02:46:12.920Z,101712.84
2023-04-08T02:48:40.323Z,101708.69
2023-04-08T02:51:09.265Z,101708.59
2023-04-08T02:53:36.711Z,101706.38
2023-04-08T02:56:04.189Z,101703.22
2023-04-08T02:58:31.655Z,101709.28
2023-04-08T03:00:59.099Z,101713.94
2023-04-08T03:03:29.777Z,101716.75
2023-04-08T03:05:58.195Z,101708.00
2023-04-08T03:08:27.033Z,101718.22
2023-04-08T03:10:54.429Z,101716.97
2023-04-08T03:13:21.841Z,101724.09
2023-04-08T03:15:49.301Z,101718.91
2023-04-08T03:18:17.769Z,101725.63
2023-04-08T03:20:45.221Z,101731.44
2023-04-08T03:23:12.629Z,101733.44
2023-04-08T03:25:41.327Z,101737.13
2023-04-08T03:28:08.745Z,101735.44
2023-04-08T03:30:36.481Z,101736.34
2023-04-08T03:33:07.892Z,101740.84
2023-04-08T03:35:35.558Z,101739.75
2023-04-08T03:38:03.016Z,101741.38
2023-04-08T03:40:30.410Z,101738.19
2023-04-08T03:42:59.163Z,101737.63
2023-04-08T03:45:26.603Z,101737.34
2023-04-08T03:47:54.046Z,101748.66
2023-04-08T03:50:21.478Z,101750.66
2023-04-08T03:52:48.889Z,101754.59
2023-04-08T03:55:16.297Z,101752.91
2023-04-08T03:57:44.917Z,101747.19
2023-04-08T04:00:15.149Z,101748.75
2023-04-08T04:02:42.609Z,101744.75
2023-04-08T04:05:10.662Z,101754.72
2023-04-08T04:07:38.058Z,101751.56
2023-04-08T04:10:06.562Z,101761.94
2023-04-08T04:12:34.011Z,101760.09
2023-04-08T04:15:01.405Z,101771.97
2023-04-08T04:17:30.183Z,101776.16
2023-04-08T04:19:57.642Z,101769.13
2023-04-08T04:22:25.096Z,101774.13
2023-04-08T04:24:52.517Z,101774.00
2023-04-08T04:27:19.918Z,101769.66
2023-04-08T04:29:47.369Z,101781.84
2023-04-08T04:32:14.814Z,101774.53
2023-04-08T04:34:44.454Z,101783.28
2023-04-08T04:37:11.971Z,101780.44
2023-04-08T04:39:39.448Z,101785.81
2023-04-08T04:42:07.514Z,101778.91
2023-04-08T04:44:34.956Z,101783.81
2023-04-08T04:47:02.373Z,101790.09
2023-04-08T04:49:29.928Z,101796.47
2023-04-08T04:51:58.764Z,101797.22
2023-04-08T04:54:26.507Z,101799.47
2023-04-08T04:56:53.956Z,101801.72
2023-04-08T04:59:21.433Z,101800.38
2023-04-08T05:01:48.982Z,101804.97
2023-04-08T05:04:16.518Z,101810.81
2023-04-08T05:06:43.934Z,101805.00
2023-04-08T05:09:12.684Z,101820.72
2023-04-08T05:11:40.094Z,101819.41
2023-04-08T05:14:07.927Z,101821.28
2023-04-08T05:16:35.772Z,101823.09
2023-04-08T05:19:03.316Z,101828.09
2023-04-08T05:21:30.787Z,101823.81
2023-04-08T05:23:58.168Z,101826.81
2023-04-08T05:26:27.146Z,101840.69
2023-04-08T05:28:54.633Z,101835.28
2023-04-08T05:31:22.330Z,101840.34
2023-04-08T05:33:49.765Z,101840.78
2023-04-08T05:36:17.319Z,101834.06
2023-04-08T05:38:44.750Z,101825.13
2023-04-08T05:41:12.280Z,101832.50
2023-04-08T05:43:41.262Z,101858.84
2023-04-08T05:46:09.179Z,101843.97
2023-04-08T05:48:36.737Z,101847.44
2023-04-08T05:51:04.499Z,101859.44
2023-04-08T05:53:32.192Z,101860.56
2023-04-08T05:55:59.646Z,101878.16
2023-04-08T05:58:27.069Z,101872.34
2023-04-08T06:00:56.395Z,101874.44
2023-04-08T06:03:23.942Z,101869.28
2023-04-08T06:05:51.630Z,101874.25
2023-04-08T06:08:19.054Z,101867.78
2023-04-08T06:10:50.021Z,101866.41
2023-04-08T06:13:17.464Z,101875.34
2023-04-08T06:15:44.934Z,101876.22
2023-04-08T06:18:13.656Z,101875.25
2023-04-08T06:20:41.048Z,101887.78
2023-04-08T06:23:08.449Z,101877.56
2023-04-08T06:25:35.861Z,101876.16
2023-04-08T06:28:03.308Z,101875.13
2023-04-08T06:30:30.720Z,101886.16
2023-04-08T06:32:58.167Z,101876.00
2023-04-08T06:35:27.967Z,101889.47
2023-04-08T06:37:55.918Z,101894.63
2023-04-08T06:40:23.330Z,101887.59
2023-04-08T06:42:50.788Z,101897.56
2023-04-08T06:45:18.188Z,101903.25
2023-04-08T06:47:45.672Z,101905.00
2023-04-08T06:50:13.097Z,101913.41
2023-04-08T06:52:41.848Z,101921.16
2023-04-08T06:55:10.004Z,101925.22
2023-04-08T06:57:37.441Z,101924.81
2023-04-08T07:00:05.690Z,101922.13
2023-04-08T07:02:33.233Z,101924.50
2023-04-08T07:05:00.978Z,101925.19
2023-04-08T07:07:28.412Z,101931.22
2023-04-08T07:09:57.197Z,101933.56
2023-04-08T07:12:24.737Z,101936.75
2023-04-08T07:14:53.080Z,101923.66
2023-04-08T07:17:20.584Z,101934.53
2023-04-08T07:19:49.265Z,101930.28
2023-04-08T07:22:17.287Z,101934.22
2023-04-08T07:24:49.561Z,101944.84
2023-04-08T07:27:18.374Z,101949.50
2023-04-08T07:29:45.809Z,101943.78
2023-04-08T07:32:13.217Z,101945.25
2023-04-08T07:34:40.749Z,101954.63
2023-04-08T07:37:08.148Z,101950.25
2023-04-08T07:39:35.588Z,101953.03
2023-04-08T07:42:03.053Z,101960.56
2023-04-08T07:44:31.820Z,101964.44
2023-04-08T07:46:59.271Z,101960.75
2023-04-08T07:49:26.721Z,101970.88
2023-04-08T07:51:54.170Z,101973.38
2023-04-08T07:54:21.604Z,101972.75
2023-04-08T07:56:49.034Z,101976.50
2023-04-08T07:59:16.674Z,101979.28
2023-04-08T08:01:46.893Z,101971.81
2023-04-08T08:04:14.838Z,101977.88
2023-04-08T08:06:42.378Z,101970.66
2023-04-08T08:09:09.833Z,101972.66
2023-04-08T08:11:37.232Z,101975.13
2023-04-08T08:14:05.270Z,101971.72
2023-04-08T08:16:33.710Z,101976.28
2023-04-08T08:19:02.901Z,101968.72
2023-04-08T08:21:31.292Z,101974.50
2023-04-08T08:23:59.616Z,101975.16
2023-04-08T08:26:27.331Z,101986.13
2023-04-08T08:28:55.040Z,101981.72
2023-04-08T08:31:22.614Z,101992.66
2023-04-08T08:33:50.250Z,101989.59
2023-04-08T08:36:19.513Z,101985.06
2023-04-08T08:38:46.973Z,101982.72
2023-04-08T08:41:15.412Z,101993.50
2023-04-08T08:43:42.861Z,101991.50
2023-04-08T08:46:12.420Z,101996.03
2023-04-08T08:48:40.743Z,102006.69
2023-04-08T08:51:09.949Z,102001.56
2023-04-08T08:53:39.117Z,101995.56
2023-04-08T08:58:40.318Z,101996.38
2023-04-08T09:01:32.797Z,102001.25
2023-04-08T09:04:12.185Z,102000.59
2023-04-08T09:06:40.028Z,102011.06
2023-04-08T09:09:11.132Z,102010.31
2023-04-08T09:11:39.878Z,102018.88
2023-04-08T09:14:18.209Z,102020.69
2023-04-08T09:16:45.856Z,102031.09
2023-04-08T09:19:13.493Z,102020.16
2023-04-08T09:21:42.305Z,102019.03
2023-04-08T09:24:28.967Z,102023.25
2023-04-08T09:26:57.097Z,102030.97
2023-04-08T09:29:27.120Z,102030.28
2023-04-08T09:31:56.938Z,102037.00
2023-04-08T09:34:25.210Z,102035.00
2023-04-08T09:36:53.057Z,102044.09
2023-04-08T09:39:21.972Z,102034.00
2023-04-08T09:41:50.992Z,102023.03
2023-04-08T09:44:20.758Z,102029.28
2023-04-08T09:46:57.631Z,102039.56
2023-04-08T09:49:28.002Z,102044.78
2023-04-08T09:52:01.009Z,102039.72
2023-04-08T09:54:38.884Z,102053.22
2023-04-08T09:57:10.717Z,102053.00
2023-04-08T09:59:39.938Z,102049.66
2023-04-08T10:02:12.403Z,102056.75
2023-04-08T10:04:42.609Z,102057.84
2023-04-08T10:07:10.539Z,102051.59
2023-04-08T10:09:41.504Z,102051.41
2023-04-08T10:12:09.098Z,102044.41
2023-04-08T10:14:36.551Z,102050.44
2023-04-08T10:17:28.596Z,102048.69
2023-04-08T10:19:58.562Z,102049.34
2023-04-08T10:22:49.104Z,102053.16
2023-04-08T10:25:34.433Z,102051.56
2023-04-08T10:28:03.397Z,102050.16
2023-04-08T10:30:40.418Z,102042.56
2023-04-08T10:33:12.221Z,102052.94
2023-04-08T10:35:42.904Z,102045.41
2023-04-08T10:38:11.685Z,102050.84
2023-04-08T10:40:42.897Z,102035.97
2023-04-08T10:43:11.530Z,102045.06
2023-04-08T10:45:39.558Z,102041.00
2023-04-08T10:48:14.358Z,102032.09
2023-04-08T10:50:41.948Z,102034.50
2023-04-08T10:53:09.472Z,102039.38
2023-04-08T10:55:37.019Z,102045.63
2023-04-08T10:58:09.485Z,102041.34
2023-04-08T11:00:38.236Z,102048.94
2023-04-08T11:03:08.228Z,102040.78
2023-04-08T11:05:37.066Z,102044.44
2023-04-08T11:08:05.533Z,102040.88
2023-04-08T11:10:38.393Z,102037.84
2023-04-08T11:13:09.890Z,102046.41
2023-04-08T11:15:38.046Z,102051.16
2023-04-08T11:18:06.382Z,102044.81
2023-04-08T11:20:36.185Z,102042.72
2023-04-08T11:23:04.055Z,102037.97
2023-04-08T11:25:31.960Z,102042.34
2023-04-08T11:28:00.253Z,102044.81
2023-04-08T11:30:30.834Z,102053.38
2023-04-08T11:32:58.419Z,102054.69
2023-04-08T11:35:29.936Z,102046.72
2023-04-08T11:37:57.945Z,102039.72
2023-04-08T11:40:26.325Z,102055.28
2023-04-08T11:42:54.162Z,102057.31
2023-04-08T11:45:22.535Z,102050.88
2023-04-08T11:47:51.512Z,102056.25
2023-04-08T11:50:25.620Z,102050.78
2023-04-08T11:52:53.814Z,102054.81
2023-04-08T11:55:26.364Z,102040.56
2023-04-08T11:57:54.556Z,102039.88
2023-04-08T12:00:22.954Z,102037.84
2023-04-08T12:02:52.857Z,102032.22
2023-04-08T12:05:21.429Z,102035.41
2023-04-08T12:07:48.973Z,102036.66
2023-04-08T12:10:16.482Z,102034.97
2023-04-08T12:12:43.940Z,102046.22
2023-04-08T12:15:11.981Z,102037.75
2023-04-08T12:17:39.714Z,102030.28
2023-04-08T12:20:09.678Z,102036.66
2023-04-08T12:22:40.165Z,102036.00
2023-04-08T12:25:07.979Z,102052.09
2023-04-08T12:27:35.650Z,102039.13
2023-04-08T12:30:03.959Z,102037.22
2023-04-08T12:32:31.783Z,102040.97
2023-04-08T12:34:59.198Z,102039.13
2023-04-08T12:37:28.611Z,102036.44
2023-04-08T12:39:56.071Z,102032.34
2023-04-08T12:42:23.486Z,102035.66
2023-04-08T12:44:50.936Z,102026.19
2023-04-08T12:47:25.579Z,102037.63
2023-04-08T12:49:53.668Z,102029.09
2023-04-08T12:52:21.097Z,102031.63
2023-04-08T12:54:49.824Z,102033.75
2023-04-08T12:57:17.523Z,102032.34
2023-04-08T12:59:44.923Z,102030.81
2023-04-08T13:02:12.376Z,102027.44
2023-04-08T13:04:39.804Z,102029.81
2023-04-08T13:07:07.627Z,102030.56
2023-04-08T13:09:35.070Z,102037.97
2023-04-08T13:12:03.982Z,102027.13
2023-04-08T13:14:31.414Z,102018.50
2023-04-08T13:16:58.851Z,102017.44
2023-04-08T13:19:26.331Z,102021.34
2023-04-08T13:21:53.697Z,102029.91
2023-04-08T13:24:21.194Z,102020.34
2023-04-08T13:26:48.609Z,102021.91
2023-04-08T13:29:17.333Z,102015.56
2023-04-08T13:31:44.878Z,102006.72
2023-04-08T13:34:12.355Z,102014.22
2023-04-08T13:36:39.787Z,102021.63
2023-04-08T13:39:07.244Z,102013.59
2023-04-08T13:41:35.009Z,102013.22
2023-04-08T13:44:02.430Z,102013.69
2023-04-08T13:46:31.336Z,102009.09
2023-04-08T13:48:58.933Z,102006.06
2023-04-08T13:51:27.414Z,102006.47
2023-04-08T13:53:54.794Z,102000.78
2023-04-08T13:56:22.221Z,102007.06
2023-04-08T13:58:56.539Z,102011.19
2023-04-08T14:01:24.842Z,102006.25
2023-04-08T14:03:53.643Z,102004.28
2023-04-08T14:06:21.141Z,101992.44
2023-04-08T14:08:48.671Z,101995.72
2023-04-08T14:11:16.328Z,101988.13
2023-04-08T14:13:43.748Z,101994.38
2023-04-08T14:16:11.169Z,101996.06
2023-04-08T14:18:38.598Z,101999.56
2023-04-08T14:21:07.518Z,101998.94
2023-04-08T14:23:34.974Z,102000.38
2023-04-08T14:26:02.412Z,102001.69
2023-04-08T14:28:29.910Z,102008.78
2023-04-08T14:30:57.380Z,101997.09
2023-04-08T14:33:24.887Z,101998.75
2023-04-08T14:35:53.583Z,101991.00
2023-04-08T14:38:23.032Z,101995.69
2023-04-08T14:40:50.728Z,102000.47
2023-04-08T14:43:18.185Z,101988.06
2023-04-08T14:45:45.962Z,101986.34
2023-04-08T14:48:13.426Z,101982.94
2023-04-08T14:50:40.836Z,101983.47
2023-04-08T14:53:08.252Z,101978.47
2023-04-08T14:55:36.953Z,101971.53
2023-04-08T14:58:04.352Z,101971.97
2023-04-08T15:00:31.731Z,101975.16
2023-04-08T15:02:59.293Z,101984.47
2023-04-08T15:05:26.746Z,101985.97
2023-04-08T15:07:54.717Z,101988.13
2023-04-08T15:10:22.155Z,101991.09
2023-04-08T15:12:50.852Z,101991.84
2023-04-08T15:15:18.265Z,101989.63
2023-04-08T15:17:45.722Z,101988.63
2023-04-08T15:20:14.448Z,101992.44
2023-04-08T15:22:42.162Z,101995.44
2023-04-08T15:25:10.849Z,101993.44
2023-04-08T15:27:38.666Z,101992.84
2023-04-08T15:30:09.808Z,101994.03
2023-04-08T15:32:38.204Z,102004.84
2023-04-08T15:35:06.668Z,102000.63
2023-04-08T15:37:34.161Z,101989.59
2023-04-08T15:40:01.814Z,101982.13
2023-04-08T15:42:29.370Z,101972.81
2023-04-08T15:44:56.761Z,101980.00
2023-04-08T15:47:25.995Z,101986.69
2023-04-08T15:49:55.797Z,101972.78
2023-04-08T15:52:23.252Z,101973.78
2023-04-08T15:54:50.732Z,101982.69
2023-04-08T15:57:18.164Z,101991.63
2023-04-08T15:59:45.624Z,101978.97
2023-04-08T16:02:13.141Z,101979.78
2023-04-08T16:04:42.768Z,101985.47
2023-04-08T16:07:10.475Z,101991.06
2023-04-08T16:09:37.898Z,101988.16
2023-04-08T16:12:05.561Z,101992.13
2023-04-08T16:14:33.012Z,101988.38
2023-04-08T16:17:00.414Z,101989.88
2023-04-08T16:19:28.259Z,101995.84
2023-04-08T16:21:57.057Z,101999.75
2023-04-08T16:24:24.498Z,101994.44
2023-04-08T16:26:51.910Z,102007.22
2023-04-08T16:29:19.376Z,101997.28
2023-04-08T16:31:46.876Z,102001.41
2023-04-08T16:34:14.533Z,102004.09
2023-04-08T16:36:42.280Z,101996.19
2023-04-08T16:39:11.086Z,101996.53
2023-04-08T16:41:39.338Z,101999.34
2023-04-08T16:44:06.980Z,101996.47
2023-04-08T16:46:34.503Z,102007.25
2023-04-08T16:49:02.396Z,102011.63
2023-04-08T16:51:29.921Z,102018.69
2023-04-08T16:53:58.949Z,102027.06
2023-04-08T16:56:28.229Z,102026.88
2023-04-08T16:58:55.767Z,102020.41
2023-04-08T17:01:23.229Z,102022.44
2023-04-08T17:03:52.830Z,102026.53
2023-04-08T17:06:20.678Z,102023.06
2023-04-08T17:08:48.144Z,102032.22
2023-04-08T17:11:16.302Z,102031.81
2023-04-08T17:13:45.655Z,102035.66
2023-04-08T17:16:13.986Z,102039.59
2023-04-08T17:18:41.650Z,102053.19
2023-04-08T17:21:09.120Z,102054.03
2023-04-08T17:23:36.542Z,102063.78
2023-04-08T17:26:07.496Z,102070.16
2023-04-08T17:28:35.224Z,102079.09
2023-04-08T17:31:04.166Z,102089.00
2023-04-08T17:33:32.121Z,102087.88
2023-04-08T17:35:59.568Z,102099.38
2023-04-08T17:38:27.065Z,102105.34
2023-04-08T17:40:54.787Z,102112.59
2023-04-08T17:43:22.221Z,102109.22
2023-04-08T17:45:50.129Z,102118.94
2023-04-08T17:48:19.019Z,102121.44
2023-04-08T17:50:46.530Z,102120.47
2023-04-08T17:53:13.941Z,102143.16
2023-04-08T17:55:41.375Z,102139.72
2023-04-08T17:58:08.836Z,102146.59
2023-04-08T18:00:36.288Z,102151.66
2023-04-08T18:03:03.823Z,102157.88
2023-04-08T18:05:32.742Z,102158.66
2023-04-08T18:08:00.202Z,102167.13
2023-04-08T18:10:27.665Z,102171.22
2023-04-08T18:13:10.341Z,102180.56
2023-04-08T18:15:38.968Z,102187.81
2023-04-08T18:18:06.381Z,102196.84
2023-04-08T18:20:37.750Z,102196.09
2023-04-08T18:23:05.390Z,102199.38
2023-04-08T18:25:34.455Z,102205.25
2023-04-08T18:28:02.156Z,102199.88
2023-04-08T18:30:30.100Z,102202.47
2023-04-08T18:32:57.640Z,102217.69
2023-04-08T18:35:25.316Z,102223.00
2023-04-08T18:37:54.197Z,102219.19
2023-04-08T18:40:21.851Z,102217.31
2023-04-08T18:42:49.245Z,102223.06
2023-04-08T18:45:16.832Z,102227.09
2023-04-08T18:47:44.286Z,102241.19
2023-04-08T18:50:11.932Z,102239.16
2023-04-08T18:52:39.510Z,102237.44
2023-04-08T18:55:08.767Z,102240.81
2023-04-08T18:57:36.177Z,102240.75
2023-04-08T19:00:03.714Z,102248.56
2023-04-08T19:02:31.713Z,102240.59
2023-04-08T19:04:59.415Z,102251.50
2023-04-08T19:07:27.423Z,102248.00
2023-04-08T19:09:57.560Z,102255.75
2023-04-08T19:12:26.626Z,102250.31
2023-04-08T19:14:54.124Z,102253.00
2023-04-08T19:17:21.590Z,102252.81
2023-04-08T19:19:48.999Z,102263.84
2023-04-08T19:22:17.033Z,102259.31
2023-04-08T19:24:44.634Z,102262.78
2023-04-08T19:27:13.905Z,102256.00
2023-04-08T19:29:42.750Z,102251.25
2023-04-08T19:32:10.249Z,102254.09
2023-04-08T19:34:38.470Z,102249.88
2023-04-08T19:37:06.042Z,102254.69
2023-04-08T19:39:33.490Z,102251.66
2023-04-08T19:42:00.878Z,102244.84
2023-04-08T19:44:28.408Z,102258.41
2023-04-08T19:46:57.830Z,102266.47
2023-04-08T19:49:25.774Z,102263.78
2023-04-08T19:51:53.243Z,102257.91
2023-04-08T19:54:21.779Z,102261.03
2023-04-08T19:56:49.446Z,102261.31
2023-04-08T19:59:17.149Z,102265.00
2023-04-08T20:01:44.629Z,102262.09
2023-04-08T20:04:13.561Z,102268.41
2023-04-08T20:06:41.225Z,102267.56
2023-04-08T20:09:08.861Z,102261.31
2023-04-08T20:11:36.407Z,102277.28
2023-04-08T20:14:04.293Z,102274.69
2023-04-08T20:16:32.080Z,102265.91
2023-04-08T20:18:59.703Z,102275.72
2023-04-08T20:21:28.746Z,102268.50
2023-04-08T20:23:57.063Z,102272.09
2023-04-08T20:26:24.434Z,102269.78
2023-04-08T20:28:52.076Z,102269.16
2023-04-08T20:31:19.987Z,102282.94
2023-04-08T20:33:47.472Z,102285.53
2023-04-08T20:36:14.936Z,102275.53
2023-04-08T20:38:43.785Z,102282.53
2023-04-08T20:41:11.329Z,102273.59
2023-04-08T20:43:39.391Z,102275.81
2023-04-08T20:46:06.853Z,102266.34
2023-04-08T20:48:34.480Z,102269.53
2023-04-08T20:51:01.955Z,102276.47
2023-04-08T20:53:29.819Z,102277.09
2023-04-08T20:55:58.664Z,102282.28
2023-04-08T20:58:26.062Z,102282.59
2023-04-08T21:00:53.612Z,102277.03
2023-04-08T21:03:21.448Z,102278.63
2023-04-08T21:05:50.127Z,102281.88
2023-04-08T21:08:17.824Z,102279.03
2023-04-08T21:10:45.206Z,102275.13
2023-04-08T21:13:14.043Z,102281.50
2023-04-08T21:15:41.469Z,102284.38
2023-04-08T21:18:11.079Z,102288.56
2023-04-08T21:20:40.418Z,102289.44
2023-04-08T21:23:08.146Z,102289.06
2023-04-08T21:25:35.613Z,102289.44
2023-04-08T21:28:03.049Z,102289.81
2023-04-08T21:30:31.848Z,102293.44
2023-04-08T21:32:59.313Z,102292.66
2023-04-08T21:35:26.914Z,102287.06
2023-04-08T21:37:54.340Z,102297.06
2023-04-08T21:40:21.810Z,102292.16
2023-04-08T21:42:49.379Z,102288.38
2023-04-08T21:45:16.920Z,102286.19
2023-04-08T21:47:46.069Z,102286.75
2023-04-08T21:50:13.532Z,102285.63
2023-04-08T21:52:42.305Z,102289.16
2023-04-08T21:55:11.340Z,102286.19
2023-04-08T21:57:39.261Z,102280.94
2023-04-08T22:00:13.153Z,102285.97
2023-04-08T22:02:41.472Z,102290.38
2023-04-08T22:05:11.760Z,102289.72
2023-04-08T22:07:39.277Z,102284.31
2023-04-08T22:10:07.932Z,102285.31
2023-04-08T22:12:35.495Z,102287.72
2023-04-08T22:15:03.570Z,102288.41
2023-04-08T22:17:31.379Z,102284.00
2023-04-08T22:19:59.159Z,102275.00
2023-04-08T22:22:27.910Z,102273.72
2023-04-08T22:24:55.390Z,102284.94
2023-04-08T22:27:22.834Z,102272.59
2023-04-08T22:29:50.249Z,102273.94
2023-04-08T22:32:18.210Z,102269.19
2023-04-08T22:34:45.675Z,102277.09
2023-04-08T22:37:13.219Z,102275.28
2023-04-08T22:39:42.017Z,102276.59
2023-04-08T22:42:09.526Z,102266.94
2023-04-08T22:44:37.000Z,102270.28
2023-04-08T22:47:04.611Z,102262.13
2023-04-08T22:49:32.034Z,102265.44
2023-04-08T22:51:59.557Z,102270.16
2023-04-08T22:54:26.996Z,102261.28
2023-04-08T22:56:55.782Z,102259.44
2023-04-08T22:59:23.289Z,102259.16
2023-04-08T23:01:50.888Z,102256.66
2023-04-08T23:04:18.423Z,102255.56
2023-04-08T23:06:45.959Z,102251.44
2023-04-08T23:09:13.454Z,102259.16
2023-04-08T23:11:40.863Z,102256.84
2023-04-08T23:14:10.987Z,102264.38
2023-04-08T23:16:38.401Z,102260.63
2023-04-08T23:19:05.804Z,102265.03
2023-04-08T23:21:33.276Z,102267.38
2023-04-08T23:24:00.786Z,102266.88
2023-04-08T23:26:28.274Z,102261.97
2023-04-08T23:28:55.873Z,102257.31
2023-04-08T23:31:24.687Z,102261.09
2023-04-08T23:33:52.099Z,102262.34
2023-04-08T23:36:19.533Z,102255.56
2023-04-08T23:38:47.024Z,102251.66
2023-04-08T23:41:14.414Z,102253.31
2023-04-08T23:43:41.812Z,102256.81
2023-04-08T23:46:09.289Z,102262.28
2023-04-08T23:48:38.020Z,102260.94
2023-04-08T23:51:06.108Z,102256.13
2023-04-08T23:53:33.637Z,102257.22
2023-04-08T23:56:05.835Z,102253.91
2023-04-08T23:58:33.628Z,102254.91
